עמוד ראשי
METAR-TAF:

METAR-TAF

שדות תעופה :

Altus Air Force Base

Altus, אוקלהומה, ארצות הברית

קו רוחב: 34-39N, קו אורך: 099-16W, גובה: 420מטר

תצפית מזג אוויר נוכחית

הדו"ח נערך לפני 37דקות, בשעה 11:55 UTC
רוח 3קשר מכיוון צפון/צפון-מזרח
טמפרטורת 21 צלסיוס
לחות 83%
לחץ 1021 hPa
ראות: 16.1קילומטר
שמיים נקיים

METAR: KLTS 251155Z AUTO 02003KT 10SM CLR 21/18 A3015 RMK AO2 SLP191 T02090183 10233 20206 51006 $

זמן: 07:32 (12:32 UTC)

תחזית

הדו"ח נערך לפני 3 שעות ו 32דקות, בשעה 09:00 UTC
תחזית בתוקף מ 25 ב 09 UTC עד 26 ב 15 UTC
רוח 6קשר עם כיוונים משתנים
ראות 10 קילומטר או יותר
שמיים נקיים
יעשה מ
25 ב 14 UTC עד 25 ב 15 UTC
רוח 10קשר מכיוון דרום-מזרח
ראות 10 קילומטר או יותר
עננים פזורים בגובה 8500רגל
יעשה מ
26 ב 00 UTC עד 26 ב 01 UTC
רוח 6קשר עם כיוונים משתנים
ראות: 2513מטר
שמיים נקיים

TAF: KLTS 250900Z 2509/2615 VRB06KT 9999 SKC QNH3011INS BECMG 2514/2515 14010KT 9999 SCT085 QNH3007INS BECMG 2600/2601 VRB06KT 9999 SKC QNH3004INS TX37/2521Z TN21/2512Z LAST NO AMDS AFT 2509 NEXT 2513

תצפיות ותחזיות מזג אוויר לגבי יותר מ- 4,000 שדות תעופה ברחבי העולם. דוחות METAR ו- TAF.

התחנות הזמינות מסומנות בנקודות צהובות ואדומות על גבי המפה.

העבר את העכבר לנקודה הצבעונית על מנת לראות את שם התחנה.

לאחר מכן, לחץ כדי לראות את תוכן ואת תחזיות מזג האוויר.

כדי לשנות את המפה: לחץ על הכפתורים הירוקים עם הפלוס השחור כדי להתקרב; על הכפתור הירוק עם המקף כדי להתרחק; או בחיצים הירוקים למפות סמוכות.


METAR-TAF: